Time,TemperatureF,DewpointF,PressureIn,WindDirection,WindDirectionDegrees,WindSpeedMPH,WindSpeedGustMPH,Humidity,HourlyPrecipIn,Conditions,Clouds,dailyrainin,SolarRadiationWatts/m^2,SoftwareType,DateUTC
2013-07-03 00:03:00,59.4,55.2,29.92,SE,141,0.0,0.0,86,0.00,,,0.00,0,Wunderground v.1.15,2013-07-03 05:03:00,
2013-07-03 00:08:00,59.2,55.0,29.92,SE,141,0.0,0.0,86,0.00,,,0.00,0,Wunderground v.1.15,2013-07-03 05:08:00,
2013-07-03 00:10:00,59.1,54.9,29.92,SE,141,0.0,0.0,86,0.00,,,0.00,0,Wunderground v.1.15,2013-07-03 05:10:00,
2013-07-03 00:15:00,59.1,55.2,29.92,SE,141,0.0,0.0,87,0.00,,,0.00,0,Wunderground v.1.15,2013-07-03 05:15:00,
2013-07-03 00:20:00,59.1,55.2,29.92,SE,141,0.0,0.0,87,0.00,,,0.00,0,Wunderground v.1.15,2013-07-03 05:20:00,
2013-07-03 00:23:00,59.1,55.2,29.92,SE,141,0.0,0.0,87,0.00,,,0.00,0,Wunderground v.1.15,2013-07-03 05:23:00,
2013-07-03 00:28:00,59.1,55.2,29.92,SE,141,0.0,0.0,87,0.00,,,0.00,0,Wunderground v.1.15,2013-07-03 05:28:00,
2013-07-03 00:33:00,58.9,55.0,29.92,SE,141,0.0,0.0,87,0.00,,,0.00,0,Wunderground v.1.15,2013-07-03 05:33:00,
2013-07-03 00:38:00,58.7,54.8,29.92,SE,141,0.0,1.0,87,0.00,,,0.00,0,Wunderground v.1.15,2013-07-03 05:38:00,
2013-07-03 00:43:00,58.3,54.4,29.92,SE,141,0.0,0.0,87,0.00,,,0.00,0,Wunderground v.1.15,2013-07-03 05:43:00,
2013-07-03 00:48:00,58.1,54.2,29.92,SE,141,0.0,1.0,87,0.00,,,0.00,0,Wunderground v.1.15,2013-07-03 05:48:00,
2013-07-03 00:54:00,57.8,54.0,29.91,SE,141,1.0,1.0,87,0.00,,,0.00,0,Wunderground v.1.15,2013-07-03 05:54:00,
2013-07-03 00:58:00,57.7,54.2,29.92,SE,141,0.0,1.0,88,0.00,,,0.00,0,Wunderground v.1.15,2013-07-03 05:58:00,
2013-07-03 01:01:00,57.6,53.8,29.91,SE,141,0.0,0.0,87,0.00,,,0.00,0,Wunderground v.1.15,2013-07-03 06:01:00,
2013-07-03 01:04:00,57.6,54.1,29.91,SE,141,1.0,2.0,88,0.00,,,0.00,0,Wunderground v.1.15,2013-07-03 06:04:00,
2013-07-03 01:09:00,57.8,54.3,29.91,SE,141,0.0,2.0,88,0.00,,,0.00,0,Wunderground v.1.15,2013-07-03 06:09:00,
2013-07-03 01:14:00,57.6,54.1,29.91,SE,141,2.0,2.0,88,0.00,,,0.00,0,Wunderground v.1.15,2013-07-03 06:14:00,
2013-07-03 01:16:00,57.5,54.0,29.91,SE,141,4.0,4.0,88,0.00,,,0.00,0,Wunderground v.1.15,2013-07-03 06:16:00,
2013-07-03 01:18:00,57.5,54.0,29.91,SE,141,3.0,4.0,88,0.00,,,0.00,0,Wunderground v.1.15,2013-07-03 06:18:00,
2013-07-03 01:22:00,57.2,53.7,29.91,SE,141,0.0,3.0,88,0.00,,,0.00,0,Wunderground v.1.15,2013-07-03 06:22:00,
2013-07-03 01:25:00,57.1,53.6,29.91,SE,141,0.0,3.0,88,0.00,,,0.00,0,Wunderground v.1.15,2013-07-03 06:25:00,
2013-07-03 01:26:00,57.0,53.5,29.91,SE,141,0.0,3.0,88,0.00,,,0.00,0,Wunderground v.1.15,2013-07-03 06:26:00,
2013-07-03 01:31:00,57.1,53.9,29.91,SE,141,2.0,2.0,89,0.00,,,0.00,0,Wunderground v.1.15,2013-07-03 06:31:00,
2013-07-03 01:37:00,57.1,53.9,29.91,SE,141,3.0,3.0,89,0.00,,,0.00,0,Wunderground v.1.15,2013-07-03 06:37:00,
2013-07-03 01:41:00,56.9,53.7,29.90,SE,141,2.0,2.0,89,0.00,,,0.00,0,Wunderground v.1.15,2013-07-03 06:41:00,
2013-07-03 01:43:00,56.8,53.6,29.90,SE,141,1.0,3.0,89,0.00,,,0.00,0,Wunderground v.1.15,2013-07-03 06:43:00,
2013-07-03 01:49:00,56.4,53.2,29.90,SE,141,1.0,3.0,89,0.00,,,0.00,0,Wunderground v.1.15,2013-07-03 06:49:00,
2013-07-03 01:55:00,56.0,52.8,29.90,SE,141,0.0,1.0,89,0.00,,,0.00,0,Wunderground v.1.15,2013-07-03 06:55:00,
2013-07-03 02:00:00,56.1,52.9,29.90,SE,141,0.0,0.0,89,0.00,,,0.00,0,Wunderground v.1.15,2013-07-03 07:00:00,
2013-07-03 02:01:00,56.1,52.9,29.90,SE,141,0.0,0.0,89,0.00,,,0.00,0,Wunderground v.1.15,2013-07-03 07:01:00,
2013-07-03 02:06:00,56.3,53.1,29.90,SE,141,0.0,0.0,89,0.00,,,0.00,0,Wunderground v.1.15,2013-07-03 07:06:00,
2013-07-03 02:11:00,56.3,53.1,29.90,SE,141,0.0,1.0,89,0.00,,,0.00,0,Wunderground v.1.15,2013-07-03 07:11:00,
2013-07-03 02:16:00,56.4,53.2,29.90,SE,141,1.0,3.0,89,0.00,,,0.00,0,Wunderground v.1.15,2013-07-03 07:16:00,
2013-07-03 02:21:00,56.0,52.8,29.90,SE,141,1.0,1.0,89,0.00,,,0.00,0,Wunderground v.1.15,2013-07-03 07:21:00,
2013-07-03 02:26:00,55.4,52.2,29.90,SE,141,1.0,3.0,89,0.00,,,0.00,0,Wunderground v.1.15,2013-07-03 07:26:00,
2013-07-03 02:31:00,55.3,52.1,29.89,SE,141,2.0,3.0,89,0.00,,,0.00,0,Wunderground v.1.15,2013-07-03 07:31:00,
2013-07-03 02:37:00,55.1,51.9,29.90,SE,141,2.0,3.0,89,0.00,,,0.00,0,Wunderground v.1.15,2013-07-03 07:37:00,
2013-07-03 02:38:00,55.1,51.9,29.89,SE,141,1.0,3.0,89,0.00,,,0.00,0,Wunderground v.1.15,2013-07-03 07:38:00,
2013-07-03 02:43:00,54.9,51.7,29.89,SE,141,2.0,3.0,89,0.00,,,0.00,0,Wunderground v.1.15,2013-07-03 07:43:00,
2013-07-03 02:48:00,54.9,52.0,29.89,SE,141,1.0,3.0,90,0.00,,,0.00,0,Wunderground v.1.15,2013-07-03 07:48:00,
2013-07-03 02:50:00,55.0,52.1,29.89,SE,141,3.0,3.0,90,0.00,,,0.00,0,Wunderground v.1.15,2013-07-03 07:50:00,
2013-07-03 02:55:00,55.3,52.4,29.89,SE,141,1.0,3.0,90,0.00,,,0.00,0,Wunderground v.1.15,2013-07-03 07:55:00,
2013-07-03 03:01:00,55.3,52.4,29.89,SE,141,0.0,1.0,90,0.00,,,0.00,0,Wunderground v.1.15,2013-07-03 08:01:00,
2013-07-03 03:02:00,55.3,52.4,29.89,SE,141,1.0,1.0,90,0.00,,,0.00,0,Wunderground v.1.15,2013-07-03 08:02:00,
2013-07-03 03:07:00,55.1,52.2,29.89,SE,141,0.0,1.0,90,0.00,,,0.00,0,Wunderground v.1.15,2013-07-03 08:07:00,
2013-07-03 03:09:00,55.0,52.1,29.89,SE,141,0.0,1.0,90,0.00,,,0.00,0,Wunderground v.1.15,2013-07-03 08:09:00,
2013-07-03 03:14:00,54.8,51.9,29.89,SE,141,1.0,2.0,90,0.00,,,0.00,0,Wunderground v.1.15,2013-07-03 08:14:00,
2013-07-03 03:19:00,54.9,52.0,29.89,SE,141,1.0,2.0,90,0.00,,,0.00,0,Wunderground v.1.15,2013-07-03 08:19:00,
2013-07-03 03:24:00,54.7,51.8,29.89,SE,141,3.0,3.0,90,0.00,,,0.00,0,Wunderground v.1.15,2013-07-03 08:24:00,
2013-07-03 03:29:00,54.5,51.6,29.89,SE,141,2.0,3.0,90,0.00,,,0.00,0,Wunderground v.1.15,2013-07-03 08:29:00,
2013-07-03 03:34:00,54.2,51.3,29.89,SE,141,1.0,2.0,90,0.00,,,0.00,0,Wunderground v.1.15,2013-07-03 08:34:00,
2013-07-03 03:39:00,53.8,50.9,29.88,SE,141,1.0,3.0,90,0.00,,,0.00,0,Wunderground v.1.15,2013-07-03 08:39:00,
2013-07-03 03:44:00,54.1,51.2,29.88,SE,141,1.0,1.0,90,0.00,,,0.00,0,Wunderground v.1.15,2013-07-03 08:44:00,
2013-07-03 03:48:00,54.5,51.6,29.88,SE,141,0.0,2.0,90,0.00,,,0.00,0,Wunderground v.1.15,2013-07-03 08:48:00,
2013-07-03 03:53:00,54.8,51.9,29.88,SE,141,0.0,1.0,90,0.00,,,0.00,0,Wunderground v.1.15,2013-07-03 08:53:00,
2013-07-03 03:56:00,54.9,52.0,29.88,SE,141,0.0,1.0,90,0.00,,,0.00,0,Wunderground v.1.15,2013-07-03 08:56:00,
2013-07-03 04:02:00,54.7,51.8,29.88,SE,141,1.0,2.0,90,0.00,,,0.00,0,Wunderground v.1.15,2013-07-03 09:02:00,
2013-07-03 04:06:00,54.7,51.8,29.88,SE,141,0.0,2.0,90,0.00,,,0.00,0,Wunderground v.1.15,2013-07-03 09:06:00,
2013-07-03 04:12:00,54.5,51.6,29.88,SE,141,0.0,0.0,90,0.00,,,0.00,0,Wunderground v.1.15,2013-07-03 09:12:00,
2013-07-03 04:17:00,54.3,51.4,29.88,SE,141,0.0,0.0,90,0.00,,,0.00,0,Wunderground v.1.15,2013-07-03 09:17:00,
2013-07-03 04:22:00,54.3,51.4,29.88,SE,141,0.0,0.0,90,0.00,,,0.00,0,Wunderground v.1.15,2013-07-03 09:22:00,
2013-07-03 04:27:00,54.2,51.3,29.88,SE,141,0.0,0.0,90,0.00,,,0.00,0,Wunderground v.1.15,2013-07-03 09:27:00,
2013-07-03 04:32:00,54.0,51.1,29.88,SE,141,0.0,0.0,90,0.00,,,0.00,0,Wunderground v.1.15,2013-07-03 09:32:00,
2013-07-03 04:37:00,53.9,51.0,29.87,SE,141,1.0,1.0,90,0.00,,,0.00,0,Wunderground v.1.15,2013-07-03 09:37:00,
2013-07-03 04:42:00,53.9,51.0,29.87,SE,141,0.0,1.0,90,0.00,,,0.00,0,Wunderground v.1.15,2013-07-03 09:42:00,
2013-07-03 04:47:00,54.0,51.1,29.88,SE,141,1.0,1.0,90,0.00,,,0.00,0,Wunderground v.1.15,2013-07-03 09:47:00,
2013-07-03 04:50:00,53.9,51.0,29.87,SE,141,2.0,2.0,90,0.00,,,0.00,0,Wunderground v.1.15,2013-07-03 09:50:00,
2013-07-03 04:55:00,53.7,50.8,29.88,SE,141,2.0,4.0,90,0.00,,,0.00,0,Wunderground v.1.15,2013-07-03 09:55:00,
2013-07-03 05:00:00,53.5,50.6,29.88,SE,141,0.0,4.0,90,0.00,,,0.00,0,Wunderground v.1.15,2013-07-03 10:00:00,
2013-07-03 05:04:00,53.3,50.4,29.88,SE,141,1.0,2.0,90,0.00,,,0.00,0,Wunderground v.1.15,2013-07-03 10:04:00,
2013-07-03 05:05:00,53.2,50.3,29.88,SE,141,1.0,2.0,90,0.00,,,0.00,0,Wunderground v.1.15,2013-07-03 10:05:00,
2013-07-03 05:10:00,52.9,50.0,29.88,SE,141,1.0,1.0,90,0.00,,,0.00,0,Wunderground v.1.15,2013-07-03 10:10:00,
2013-07-03 05:15:00,52.9,50.0,29.88,SE,141,1.0,2.0,90,0.00,,,0.00,0,Wunderground v.1.15,2013-07-03 10:15:00,
2013-07-03 05:22:00,53.4,50.8,29.88,SE,141,3.0,3.0,91,0.00,,,0.00,0,Wunderground v.1.15,2013-07-03 10:22:00,
2013-07-03 05:27:00,53.7,51.1,29.88,SE,141,0.0,3.0,91,0.00,,,0.00,0,Wunderground v.1.15,2013-07-03 10:27:00,
2013-07-03 05:31:00,53.3,50.7,29.88,SE,141,1.0,2.0,91,0.00,,,0.00,0,Wunderground v.1.15,2013-07-03 10:31:00,
2013-07-03 05:36:00,53.0,50.4,29.88,SE,141,1.0,2.0,91,0.00,,,0.00,0,Wunderground v.1.15,2013-07-03 10:36:00,
2013-07-03 05:41:00,52.8,49.9,29.88,SE,141,0.0,1.0,90,0.00,,,0.00,0,Wunderground v.1.15,2013-07-03 10:41:00,
2013-07-03 05:46:00,52.7,50.1,29.88,SE,141,0.0,1.0,91,0.00,,,0.00,0,Wunderground v.1.15,2013-07-03 10:46:00,
2013-07-03 05:49:00,52.8,50.2,29.88,SE,141,0.0,1.0,91,0.00,,,0.00,0,Wunderground v.1.15,2013-07-03 10:49:00,
2013-07-03 05:54:00,52.8,50.2,29.88,SE,141,1.0,1.0,91,0.00,,,0.00,0,Wunderground v.1.15,2013-07-03 10:54:00,
2013-07-03 05:55:00,52.8,50.2,29.88,SE,141,1.0,1.0,91,0.00,,,0.00,0,Wunderground v.1.15,2013-07-03 10:55:00,
2013-07-03 05:57:00,52.8,50.2,29.88,SE,141,0.0,1.0,91,0.00,,,0.00,0,Wunderground v.1.15,2013-07-03 10:57:00,
2013-07-03 06:03:00,52.7,50.1,29.88,SE,141,0.0,2.0,91,0.00,,,0.00,0,Wunderground v.1.15,2013-07-03 11:03:00,
2013-07-03 06:08:00,52.6,50.0,29.88,SE,141,1.0,2.0,91,0.00,,,0.00,5,Wunderground v.1.15,2013-07-03 11:08:00,
2013-07-03 06:09:00,52.6,50.0,29.89,SE,141,2.0,2.0,91,0.00,,,0.00,5,Wunderground v.1.15,2013-07-03 11:09:00,
2013-07-03 06:14:00,52.6,50.0,29.88,SE,141,0.0,1.0,91,0.00,,,0.00,9,Wunderground v.1.15,2013-07-03 11:14:00,
2013-07-03 06:19:00,52.4,49.8,29.88,SE,141,0.0,1.0,91,0.00,,,0.00,12,Wunderground v.1.15,2013-07-03 11:19:00,
2013-07-03 06:23:00,52.3,49.8,29.88,SE,141,0.0,0.0,91,0.00,,,0.00,16,Wunderground v.1.15,2013-07-03 11:23:00,
2013-07-03 06:25:00,52.3,49.8,29.88,SE,141,0.0,0.0,91,0.00,,,0.00,16,Wunderground v.1.15,2013-07-03 11:25:00,
2013-07-03 06:30:00,52.1,49.6,29.89,SE,141,0.0,0.0,91,0.00,,,0.00,21,Wunderground v.1.15,2013-07-03 11:30:00,
2013-07-03 06:35:00,51.9,49.4,29.88,SE,141,0.0,0.0,91,0.00,,,0.00,25,Wunderground v.1.15,2013-07-03 11:35:00,
2013-07-03 06:40:00,51.9,49.4,29.88,SE,141,0.0,0.0,91,0.00,,,0.00,28,Wunderground v.1.15,2013-07-03 11:40:00,
2013-07-03 06:51:00,52.3,49.8,29.88,SE,141,0.0,0.0,91,0.00,,,0.00,37,Wunderground v.1.15,2013-07-03 11:51:00,
2013-07-03 06:56:00,52.5,49.9,29.88,SE,141,0.0,0.0,91,0.00,,,0.00,54,Wunderground v.1.15,2013-07-03 11:56:00,
2013-07-03 07:01:00,52.8,50.2,29.88,SE,141,0.0,0.0,91,0.00,,,0.00,65,Wunderground v.1.15,2013-07-03 12:01:00,
2013-07-03 07:02:00,52.8,50.2,29.88,SE,141,0.0,0.0,91,0.00,,,0.00,67,Wunderground v.1.15,2013-07-03 12:02:00,
2013-07-03 07:08:00,53.4,50.8,29.88,SE,141,0.0,0.0,91,0.00,,,0.00,81,Wunderground v.1.15,2013-07-03 12:08:00,
2013-07-03 07:11:00,54.0,51.4,29.89,SE,141,0.0,0.0,91,0.00,,,0.00,88,Wunderground v.1.15,2013-07-03 12:11:00,
2013-07-03 07:16:00,54.9,52.3,29.89,SE,141,0.0,0.0,91,0.00,,,0.00,98,Wunderground v.1.15,2013-07-03 12:16:00,
2013-07-03 07:21:00,55.9,53.3,29.88,SE,141,0.0,0.0,91,0.00,,,0.00,113,Wunderground v.1.15,2013-07-03 12:21:00,
2013-07-03 07:23:00,56.2,53.6,29.88,SE,141,0.0,0.0,91,0.00,,,0.00,121,Wunderground v.1.15,2013-07-03 12:23:00,
2013-07-03 07:28:00,56.9,54.3,29.88,SE,141,0.0,0.0,91,0.00,,,0.00,132,Wunderground v.1.15,2013-07-03 12:28:00,
2013-07-03 07:35:00,57.7,55.1,29.88,SE,141,0.0,0.0,91,0.00,,,0.00,153,Wunderground v.1.15,2013-07-03 12:35:00,
2013-07-03 07:41:00,58.6,56.0,29.88,SE,141,0.0,0.0,91,0.00,,,0.00,172,Wunderground v.1.15,2013-07-03 12:41:00,
2013-07-03 07:47:00,59.5,56.9,29.88,SE,141,1.0,2.0,91,0.00,,,0.00,192,Wunderground v.1.15,2013-07-03 12:47:00,
2013-07-03 07:54:00,59.6,57.0,29.88,SE,141,1.0,2.0,91,0.00,,,0.00,206,Wunderground v.1.15,2013-07-03 12:54:00,
2013-07-03 07:59:00,60.1,57.5,29.88,SE,141,2.0,3.0,91,0.00,,,0.00,218,Wunderground v.1.15,2013-07-03 12:59:00,
2013-07-03 08:01:00,60.2,57.6,29.88,SE,141,3.0,3.0,91,0.00,,,0.00,225,Wunderground v.1.15,2013-07-03 13:01:00,
2013-07-03 08:12:00,61.8,58.8,29.88,SE,142,0.0,1.0,90,0.00,,,0.00,257,Wunderground v.1.15,2013-07-03 13:12:00,
2013-07-03 08:17:00,62.1,59.1,29.88,SE,142,3.0,3.0,90,0.00,,,0.00,271,Wunderground v.1.15,2013-07-03 13:17:00,
2013-07-03 08:25:00,63.0,59.4,29.88,SE,142,1.0,2.0,88,0.00,,,0.00,299,Wunderground v.1.15,2013-07-03 13:25:00,
2013-07-03 08:30:00,63.6,59.7,29.88,SE,142,3.0,3.0,87,0.00,,,0.00,320,Wunderground v.1.15,2013-07-03 13:30:00,
2013-07-03 08:35:00,64.5,60.2,29.88,SE,142,0.0,2.0,86,0.00,,,0.00,348,Wunderground v.1.15,2013-07-03 13:35:00,
2013-07-03 08:38:00,64.9,60.6,29.88,SE,142,1.0,2.0,86,0.00,,,0.00,355,Wunderground v.1.15,2013-07-03 13:38:00,
2013-07-03 08:43:00,65.8,61.2,29.88,SE,142,2.0,2.0,85,0.00,,,0.00,374,Wunderground v.1.15,2013-07-03 13:43:00,
2013-07-03 08:48:00,66.6,61.6,29.88,SE,142,2.0,2.0,84,0.00,,,0.00,392,Wunderground v.1.15,2013-07-03 13:48:00,
2013-07-03 08:53:00,67.1,61.4,29.88,SE,142,0.0,2.0,82,0.00,,,0.00,410,Wunderground v.1.15,2013-07-03 13:53:00,
2013-07-03 08:58:00,67.9,61.9,29.88,SE,143,3.0,4.0,81,0.00,,,0.00,425,Wunderground v.1.15,2013-07-03 13:58:00,
2013-07-03 09:04:00,68.8,61.3,29.88,SSE,149,4.0,4.0,77,0.00,,,0.00,445,Wunderground v.1.15,2013-07-03 14:04:00,
2013-07-03 09:06:00,69.3,61.4,29.88,SSE,149,2.0,4.0,76,0.00,,,0.00,452,Wunderground v.1.15,2013-07-03 14:06:00,
2013-07-03 09:09:00,69.6,61.3,29.88,SSE,153,2.0,4.0,75,0.00,,,0.00,461,Wunderground v.1.15,2013-07-03 14:09:00,
2013-07-03 09:15:00,70.1,60.3,29.88,South,191,5.0,6.0,71,0.00,,,0.00,478,Wunderground v.1.15,2013-07-03 14:15:00,
2013-07-03 09:17:00,70.5,60.2,29.88,South,191,1.0,6.0,70,0.00,,,0.00,485,Wunderground v.1.15,2013-07-03 14:17:00,
2013-07-03 09:22:00,70.9,59.4,29.88,SW,215,5.0,7.0,67,0.00,,,0.00,501,Wunderground v.1.15,2013-07-03 14:22:00,
2013-07-03 09:27:00,71.7,59.7,29.87,SW,215,3.0,7.0,66,0.00,,,0.00,512,Wunderground v.1.15,2013-07-03 14:27:00,
2013-07-03 09:30:00,72.0,59.6,29.87,SW,215,0.0,3.0,65,0.00,,,0.00,524,Wunderground v.1.15,2013-07-03 14:30:00,
2013-07-03 09:35:00,72.9,61.3,29.87,SW,215,2.0,3.0,67,0.00,,,0.00,540,Wunderground v.1.15,2013-07-03 14:35:00,
2013-07-03 09:38:00,73.0,60.5,29.87,SW,215,3.0,3.0,65,0.00,,,0.00,547,Wunderground v.1.15,2013-07-03 14:38:00,
2013-07-03 09:41:00,73.0,61.0,29.87,SW,215,1.0,3.0,66,0.00,,,0.00,555,Wunderground v.1.15,2013-07-03 14:41:00,
2013-07-03 09:46:00,73.5,62.3,29.87,SW,215,0.0,4.0,68,0.00,,,0.00,573,Wunderground v.1.15,2013-07-03 14:46:00,
2013-07-03 09:52:00,73.9,61.8,29.87,SW,215,2.0,2.0,66,0.00,,,0.00,589,Wunderground v.1.15,2013-07-03 14:52:00,
2013-07-03 09:57:00,74.2,61.7,29.86,SW,215,1.0,3.0,65,0.00,,,0.00,605,Wunderground v.1.15,2013-07-03 14:57:00,
2013-07-03 09:58:00,74.4,61.9,29.86,SW,215,2.0,3.0,65,0.00,,,0.00,608,Wunderground v.1.15,2013-07-03 14:58:00,
2013-07-03 10:03:00,75.0,62.0,29.86,SW,215,3.0,3.0,64,0.00,,,0.00,622,Wunderground v.1.15,2013-07-03 15:03:00,
2013-07-03 10:05:00,75.1,62.5,29.86,SSW,212,6.0,6.0,65,0.00,,,0.00,626,Wunderground v.1.15,2013-07-03 15:05:00,
2013-07-03 10:10:00,75.2,62.2,29.86,SSW,206,4.0,4.0,64,0.00,,,0.00,640,Wunderground v.1.15,2013-07-03 15:10:00,
2013-07-03 10:15:00,75.7,61.3,29.85,SSW,206,2.0,4.0,61,0.00,,,0.00,654,Wunderground v.1.15,2013-07-03 15:15:00,
2013-07-03 10:20:00,76.1,61.2,29.85,SSW,206,5.0,5.0,60,0.00,,,0.00,670,Wunderground v.1.15,2013-07-03 15:20:00,
2013-07-03 10:25:00,76.2,60.8,29.85,SSW,205,6.0,7.0,59,0.00,,,0.00,687,Wunderground v.1.15,2013-07-03 15:25:00,
2013-07-03 10:29:00,76.1,58.8,29.85,SSW,205,3.0,7.0,55,0.00,,,0.00,694,Wunderground v.1.15,2013-07-03 15:29:00,
2013-07-03 10:34:00,76.4,59.0,29.85,SSW,205,3.0,4.0,55,0.00,,,0.00,707,Wunderground v.1.15,2013-07-03 15:34:00,
2013-07-03 10:39:00,77.1,59.7,29.85,SSW,205,4.0,4.0,55,0.00,,,0.00,715,Wunderground v.1.15,2013-07-03 15:39:00,
2013-07-03 10:41:00,77.2,62.2,29.85,SSW,205,6.0,6.0,60,0.00,,,0.00,722,Wunderground v.1.15,2013-07-03 15:41:00,
2013-07-03 10:46:00,77.3,58.8,29.84,South,188,6.0,8.0,53,0.00,,,0.00,733,Wunderground v.1.15,2013-07-03 15:46:00,
2013-07-03 10:51:00,77.3,56.6,29.85,SW,219,6.0,6.0,49,0.00,,,0.00,744,Wunderground v.1.15,2013-07-03 15:51:00,
2013-07-03 10:52:00,77.4,56.7,29.85,SW,221,6.0,7.0,49,0.00,,,0.00,744,Wunderground v.1.15,2013-07-03 15:52:00,
2013-07-03 10:57:00,78.0,59.5,29.85,SW,217,3.0,7.0,53,0.00,,,0.00,758,Wunderground v.1.15,2013-07-03 15:57:00,
2013-07-03 11:02:00,77.9,58.9,29.84,South,190,7.0,8.0,52,0.00,,,0.00,765,Wunderground v.1.15,2013-07-03 16:02:00,
2013-07-03 11:08:00,77.9,58.3,29.84,SW,214,5.0,11.0,51,0.00,,,0.00,780,Wunderground v.1.15,2013-07-03 16:08:00,
2013-07-03 11:13:00,77.8,59.3,29.84,SSW,194,6.0,13.0,53,0.00,,,0.00,786,Wunderground v.1.15,2013-07-03 16:13:00,
2013-07-03 11:18:00,78.2,59.1,29.84,SSW,200,9.0,13.0,52,0.00,,,0.00,809,Wunderground v.1.15,2013-07-03 16:18:00,
2013-07-03 11:24:00,78.3,57.0,29.84,SW,215,6.0,8.0,48,0.00,,,0.00,823,Wunderground v.1.15,2013-07-03 16:24:00,
2013-07-03 11:29:00,78.2,58.6,29.84,South,189,7.0,11.0,51,0.00,,,0.00,824,Wunderground v.1.15,2013-07-03 16:29:00,
2013-07-03 11:34:00,78.5,60.5,29.84,South,183,10.0,11.0,54,0.00,,,0.00,854,Wunderground v.1.15,2013-07-03 16:34:00,
2013-07-03 11:39:00,78.5,57.2,29.84,SSW,195,7.0,11.0,48,0.00,,,0.00,849,Wunderground v.1.15,2013-07-03 16:39:00,
2013-07-03 11:44:00,78.8,58.6,29.83,SSW,195,8.0,8.0,50,0.00,,,0.00,881,Wunderground v.1.15,2013-07-03 16:44:00,
2013-07-03 11:50:00,79.1,58.3,29.83,South,191,10.0,10.0,49,0.00,,,0.00,911,Wunderground v.1.15,2013-07-03 16:50:00,
2013-07-03 11:55:00,79.1,57.7,29.83,SSW,195,6.0,9.0,48,0.00,,,0.00,896,Wunderground v.1.15,2013-07-03 16:55:00,
2013-07-03 18:01:00,79.6,57.0,29.74,South,182,7.0,7.0,46,0.00,,,0.00,513,Wunderground v.1.15,2013-07-03 23:01:00,
2013-07-03 18:06:00,79.6,58.2,29.74,SSE,163,11.0,13.0,48,0.00,,,0.00,471,Wunderground v.1.15,2013-07-03 23:06:00,
2013-07-03 18:11:00,79.3,57.9,29.74,SSE,158,9.0,10.0,48,0.00,,,0.00,130,Wunderground v.1.15,2013-07-03 23:11:00,
2013-07-03 18:16:00,78.8,58.6,29.74,SSE,153,9.0,13.0,50,0.00,,,0.00,454,Wunderground v.1.15,2013-07-03 23:16:00,
2013-07-03 18:22:00,79.2,57.2,29.74,SSE,163,10.0,12.0,47,0.00,,,0.00,432,Wunderground v.1.15,2013-07-03 23:22:00,
2013-07-03 18:27:00,79.1,59.4,29.74,SSE,153,9.0,13.0,51,0.00,,,0.00,418,Wunderground v.1.15,2013-07-03 23:27:00,
2013-07-03 18:32:00,79.0,58.2,29.73,SSE,163,6.0,11.0,49,0.00,,,0.00,396,Wunderground v.1.15,2013-07-03 23:32:00,
2013-07-03 18:37:00,79.1,56.5,29.73,SSE,164,9.0,13.0,46,0.00,,,0.00,380,Wunderground v.1.15,2013-07-03 23:37:00,
2013-07-03 18:42:00,79.0,58.8,29.73,SSE,165,9.0,11.0,50,0.00,,,0.00,371,Wunderground v.1.15,2013-07-03 23:42:00,
2013-07-03 18:47:00,78.9,57.5,29.73,SSE,165,17.0,17.0,48,0.00,,,0.00,353,Wunderground v.1.15,2013-07-03 23:47:00,
2013-07-03 18:53:00,78.8,56.9,29.73,SSE,156,15.0,15.0,47,0.00,,,0.00,334,Wunderground v.1.15,2013-07-03 23:53:00,
2013-07-03 18:58:00,78.7,55.6,29.73,South,178,9.0,17.0,45,0.00,,,0.00,322,Wunderground v.1.15,2013-07-03 23:58:00,
2013-07-03 19:03:00,78.6,56.1,29.73,SSE,164,9.0,13.0,46,0.00,,,0.00,306,Wunderground v.1.15,2013-07-04 00:03:00,
2013-07-03 19:08:00,78.6,56.1,29.73,South,169,13.0,15.0,46,0.00,,,0.00,290,Wunderground v.1.15,2013-07-04 00:08:00,
2013-07-03 19:13:00,78.4,56.5,29.73,South,173,10.0,16.0,47,0.00,,,0.00,276,Wunderground v.1.15,2013-07-04 00:13:00,
2013-07-03 19:19:00,78.3,57.0,29.73,SSE,163,12.0,16.0,48,0.00,,,0.00,260,Wunderground v.1.15,2013-07-04 00:19:00,
2013-07-03 19:24:00,78.0,56.7,29.73,SSE,168,7.0,15.0,48,0.00,,,0.00,151,Wunderground v.1.15,2013-07-04 00:24:00,
2013-07-03 19:29:00,77.8,56.5,29.73,SSE,159,11.0,15.0,48,0.00,,,0.00,223,Wunderground v.1.15,2013-07-04 00:29:00,
2013-07-03 19:34:00,77.7,57.0,29.73,SSE,160,8.0,13.0,49,0.00,,,0.00,209,Wunderground v.1.15,2013-07-04 00:34:00,
2013-07-03 19:39:00,77.3,56.6,29.73,South,169,7.0,13.0,49,0.00,,,0.00,193,Wunderground v.1.15,2013-07-04 00:39:00,
2013-07-03 19:44:00,77.3,57.2,29.73,South,170,11.0,14.0,50,0.00,,,0.00,172,Wunderground v.1.15,2013-07-04 00:44:00,
2013-07-03 19:49:00,77.1,58.1,29.73,SSE,161,8.0,14.0,52,0.00,,,0.00,156,Wunderground v.1.15,2013-07-04 00:49:00,
2013-07-03 19:55:00,76.7,57.7,29.74,SSE,163,8.0,12.0,52,0.00,,,0.00,132,Wunderground v.1.15,2013-07-04 00:55:00,
2013-07-03 20:00:00,76.4,56.9,29.74,SSE,155,9.0,9.0,51,0.00,,,0.00,63,Wunderground v.1.15,2013-07-04 01:00:00,
2013-07-03 20:05:00,75.9,57.5,29.73,SSE,159,9.0,12.0,53,0.00,,,0.00,58,Wunderground v.1.15,2013-07-04 01:05:00,
2013-07-03 20:10:00,75.5,58.2,29.73,SSE,155,11.0,11.0,55,0.00,,,0.00,53,Wunderground v.1.15,2013-07-04 01:10:00,
2013-07-03 20:15:00,75.1,57.8,29.73,SSE,156,6.0,11.0,55,0.00,,,0.00,49,Wunderground v.1.15,2013-07-04 01:15:00,
2013-07-03 20:20:00,74.7,57.5,29.73,SSE,153,9.0,9.0,55,0.00,,,0.00,47,Wunderground v.1.15,2013-07-04 01:20:00,
2013-07-03 20:25:00,74.4,57.7,29.73,SSE,151,8.0,10.0,56,0.00,,,0.00,46,Wunderground v.1.15,2013-07-04 01:25:00,
2013-07-03 20:30:00,73.8,58.1,29.73,SSE,150,6.0,7.0,58,0.00,,,0.00,39,Wunderground v.1.15,2013-07-04 01:30:00,
2013-07-03 20:36:00,72.8,58.6,29.73,SSE,150,6.0,7.0,61,0.00,,,0.00,33,Wunderground v.1.15,2013-07-04 01:36:00,
2013-07-03 20:41:00,72.1,58.4,29.73,SSE,150,6.0,7.0,62,0.00,,,0.00,28,Wunderground v.1.15,2013-07-04 01:41:00,
2013-07-03 20:46:00,71.5,59.1,29.74,SSE,150,5.0,7.0,65,0.00,,,0.00,25,Wunderground v.1.15,2013-07-04 01:46:00,
2013-07-03 20:51:00,70.9,59.4,29.74,SSE,148,5.0,6.0,67,0.00,,,0.00,19,Wunderground v.1.15,2013-07-04 01:51:00,
2013-07-03 20:56:00,70.4,58.5,29.74,SSE,148,4.0,6.0,66,0.00,,,0.00,16,Wunderground v.1.15,2013-07-04 01:56:00,
2013-07-03 21:01:00,69.9,58.9,29.74,SSE,147,7.0,7.0,68,0.00,,,0.00,12,Wunderground v.1.15,2013-07-04 02:01:00,
2013-07-03 21:06:00,69.8,58.3,29.74,SE,138,8.0,9.0,67,0.00,,,0.00,7,Wunderground v.1.15,2013-07-04 02:06:00,